createdAt,value
2022-07-25T00:01:56.837Z,18.98
2022-07-25T00:04:28.622Z,9.95
2022-07-25T00:06:58.888Z,11.20
2022-07-25T00:09:30.494Z,5.93
2022-07-25T00:12:00.938Z,13.30
2022-07-25T00:14:34.545Z,11.57
2022-07-25T00:17:04.998Z,12.23
2022-07-25T00:19:35.531Z,8.02
2022-07-25T00:22:06.056Z,13.23
2022-07-25T00:24:36.933Z,7.03
2022-07-25T00:27:07.576Z,10.88
2022-07-25T00:29:41.142Z,12.95
2022-07-25T00:32:19.762Z,8.77
2022-07-25T00:34:50.141Z,7.53
2022-07-25T00:37:20.839Z,8.73
2022-07-25T00:39:51.350Z,12.50
2022-07-25T00:42:22.348Z,6.25
2022-07-25T00:44:55.928Z,8.80
2022-07-25T00:47:26.649Z,9.70
2022-07-25T00:49:57.569Z,8.07
2022-07-25T00:52:28.538Z,7.80
2022-07-25T00:55:00.185Z,5.82
2022-07-25T00:57:30.671Z,7.65
2022-07-25T01:00:04.196Z,8.05
2022-07-25T01:02:35.485Z,18.27
2022-07-25T01:05:06.174Z,6.75
2022-07-25T01:07:36.520Z,9.15
2022-07-25T01:10:08.432Z,10.00
2022-07-25T01:12:50.669Z,8.35
2022-07-25T01:15:27.278Z,14.30
2022-07-25T01:17:58.586Z,9.35
2022-07-25T01:20:34.920Z,5.78
2022-07-25T01:23:05.431Z,10.60
2022-07-25T01:25:35.815Z,9.48
2022-07-25T01:28:07.394Z,6.18
2022-07-25T01:30:38.372Z,6.45
2022-07-25T01:33:09.061Z,10.15
2022-07-25T01:35:43.654Z,7.25
2022-07-25T01:38:14.422Z,9.18
2022-07-25T01:40:45.641Z,7.75
2022-07-25T01:43:16.258Z,7.63
2022-07-25T01:45:47.515Z,6.65
2022-07-25T01:48:18.270Z,7.65
2022-07-25T01:50:53.632Z,14.10
2022-07-25T01:53:24.944Z,6.38
2022-07-25T01:55:57.392Z,5.55
2022-07-25T01:58:27.946Z,12.98
2022-07-25T02:00:59.409Z,8.20
2022-07-25T02:03:36.249Z,8.77
2022-07-25T02:06:11.443Z,8.38
2022-07-25T02:08:41.987Z,9.15
2022-07-25T02:11:12.672Z,5.05
2022-07-25T02:13:43.240Z,7.15
2022-07-25T02:16:13.787Z,8.85
2022-07-25T02:18:44.730Z,15.15
2022-07-25T02:21:18.057Z,7.63
2022-07-25T02:26:18.967Z,6.57
2022-07-25T02:28:49.772Z,7.28
2022-07-25T02:31:20.793Z,7.30
2022-07-25T02:33:51.381Z,7.40
2022-07-25T02:36:24.634Z,6.30
2022-07-25T02:38:55.566Z,12.02
2022-07-25T02:41:26.225Z,5.55
2022-07-25T02:43:57.309Z,6.22
2022-07-25T02:46:27.864Z,8.35
2022-07-25T02:48:59.345Z,8.43
2022-07-25T02:51:32.968Z,5.68
2022-07-25T02:54:03.676Z,8.40
2022-07-25T02:56:34.597Z,12.93
2022-07-25T02:59:05.097Z,5.80
2022-07-25T03:01:36.091Z,9.55
2022-07-25T03:04:07.240Z,7.70
2022-07-25T03:06:40.909Z,6.57
2022-07-25T03:09:11.566Z,5.53
2022-07-25T03:11:42.422Z,9.95
2022-07-25T03:14:12.961Z,8.20
2022-07-25T03:16:43.481Z,6.13
2022-07-25T03:19:14.644Z,5.30
2022-07-25T03:21:48.152Z,11.55
2022-07-25T03:24:19.380Z,10.23
2022-07-25T03:26:50.351Z,7.57
2022-07-25T03:29:20.565Z,12.15
2022-07-25T03:31:51.162Z,8.73
2022-07-25T03:34:22.379Z,13.40
2022-07-25T03:36:55.690Z,5.57
2022-07-25T03:39:26.377Z,14.70
2022-07-25T03:41:57.348Z,9.45
2022-07-25T03:44:29.730Z,8.73
2022-07-25T03:47:00.359Z,12.50
2022-07-25T03:49:30.840Z,10.95
2022-07-25T03:52:04.722Z,9.18
2022-07-25T03:54:35.221Z,9.77
2022-07-25T03:57:05.784Z,12.50
2022-07-25T03:59:36.742Z,13.68
2022-07-25T04:02:07.466Z,9.90
2022-07-25T04:04:38.407Z,11.95
2022-07-25T04:07:11.601Z,6.40
2022-07-25T04:09:43.200Z,12.05
2022-07-25T04:12:13.729Z,19.88
2022-07-25T04:14:44.349Z,11.82
2022-07-25T04:17:16.856Z,8.30
2022-07-25T04:19:48.635Z,11.77
2022-07-25T04:22:21.806Z,10.80
2022-07-25T04:24:52.146Z,12.18
2022-07-25T04:27:22.541Z,19.02
2022-07-25T04:29:53.242Z,7.53
2022-07-25T04:32:23.803Z,12.32
2022-07-25T04:34:55.571Z,17.15
2022-07-25T04:37:29.960Z,13.43
2022-07-25T04:40:00.280Z,16.17
2022-07-25T04:42:31.305Z,14.25
2022-07-25T04:45:01.866Z,13.30
2022-07-25T04:47:32.457Z,20.88
2022-07-25T04:50:03.062Z,15.45
2022-07-25T04:52:36.861Z,10.50
2022-07-25T04:55:08.513Z,10.68
2022-07-25T04:57:39.346Z,17.35
2022-07-25T05:00:12.237Z,7.63
2022-07-25T05:02:43.400Z,10.73
2022-07-25T05:05:21.397Z,10.45
2022-07-25T05:07:59.696Z,8.00
2022-07-25T05:10:32.402Z,11.60
2022-07-25T05:13:03.160Z,6.63
2022-07-25T05:15:34.124Z,15.27
2022-07-25T05:18:05.458Z,7.80
2022-07-25T05:20:37.667Z,5.55
2022-07-25T05:23:11.153Z,5.70
2022-07-25T05:25:41.676Z,9.35
2022-07-25T05:28:13.129Z,8.45
2022-07-25T05:30:45.479Z,7.30
2022-07-25T05:33:16.487Z,6.07
2022-07-25T05:35:47.104Z,9.90
2022-07-25T05:38:20.814Z,10.13
2022-07-25T05:40:52.669Z,6.18
2022-07-25T05:43:23.429Z,7.20
2022-07-25T05:45:55.615Z,8.57
2022-07-25T05:48:26.610Z,13.15
2022-07-25T05:50:58.002Z,3.85
2022-07-25T05:53:33.161Z,8.57
2022-07-25T05:56:04.946Z,10.48
2022-07-25T05:58:37.638Z,4.40
2022-07-25T06:01:09.431Z,12.32
2022-07-25T06:03:42.738Z,8.45
2022-07-25T06:06:14.695Z,13.65
2022-07-25T06:08:54.372Z,10.73
2022-07-25T06:11:30.644Z,12.40
2022-07-25T06:14:01.664Z,11.75
2022-07-25T06:16:34.861Z,5.07
2022-07-25T06:19:07.845Z,6.80
2022-07-25T06:21:40.766Z,4.25
2022-07-25T06:24:28.742Z,7.57
2022-07-25T06:27:02.929Z,5.80
2022-07-25T06:29:36.014Z,14.20
2022-07-25T06:32:07.161Z,3.75
2022-07-25T06:34:38.130Z,14.77
2022-07-25T06:37:10.190Z,15.50
2022-07-25T06:39:46.376Z,6.43
2022-07-25T06:42:16.942Z,6.80
2022-07-25T06:44:47.813Z,6.68
2022-07-25T06:47:18.600Z,6.78
2022-07-25T06:49:49.446Z,23.50
2022-07-25T06:52:22.557Z,14.00
2022-07-25T06:57:48.898Z,18.25
2022-07-25T07:00:19.573Z,6.47
2022-07-25T07:02:56.433Z,29.23
2022-07-25T07:05:30.318Z,29.40
2022-07-25T07:08:00.847Z,14.25
2022-07-25T07:10:34.093Z,9.02
2022-07-25T07:13:12.007Z,6.82
2022-07-25T07:15:50.528Z,17.17
2022-07-25T07:18:20.934Z,7.70
2022-07-25T07:20:51.970Z,5.00
2022-07-25T07:23:22.409Z,13.13
2022-07-25T07:25:57.453Z,4.50
2022-07-25T07:28:27.787Z,11.18
2022-07-25T07:31:15.679Z,8.75
2022-07-25T07:33:47.231Z,9.88
2022-07-25T07:36:17.550Z,15.27
2022-07-25T07:38:48.494Z,5.13
2022-07-25T07:41:21.536Z,13.65
2022-07-25T07:46:22.050Z,35.92
2022-07-25T07:48:52.374Z,4.65
2022-07-25T07:51:22.578Z,9.25
2022-07-25T07:54:05.217Z,11.40
2022-07-25T07:56:38.044Z,10.70
2022-07-25T07:59:08.663Z,27.25
2022-07-25T08:01:39.270Z,7.88
2022-07-25T08:04:09.563Z,6.35
2022-07-25T08:06:40.833Z,10.75
2022-07-25T08:09:10.977Z,4.18
2022-07-25T08:11:43.819Z,9.32
2022-07-25T08:14:14.174Z,6.00
2022-07-25T08:16:44.357Z,9.10
2022-07-25T08:19:14.550Z,8.50
2022-07-25T08:21:47.184Z,10.95
2022-07-25T08:24:17.576Z,12.63
2022-07-25T08:26:50.335Z,15.32
2022-07-25T08:29:23.854Z,10.65
2022-07-25T08:31:57.957Z,10.45
2022-07-25T08:34:28.166Z,6.75
2022-07-25T08:36:59.190Z,9.50
2022-07-25T08:39:29.400Z,7.07
2022-07-25T08:42:05.455Z,4.80
2022-07-25T08:44:43.102Z,7.25
2022-07-25T08:47:15.875Z,4.50
2022-07-25T08:49:46.770Z,5.53
2022-07-25T08:52:17.081Z,5.68
2022-07-25T08:54:49.491Z,10.43
2022-07-25T08:57:22.419Z,14.45
2022-07-25T09:02:22.756Z,5.40
2022-07-25T09:04:53.081Z,6.97
2022-07-25T09:07:35.903Z,10.20
2022-07-25T09:10:16.817Z,3.80
2022-07-25T09:12:57.899Z,6.90
2022-07-25T09:15:33.394Z,7.55
2022-07-25T09:18:05.996Z,11.55
2022-07-25T09:20:44.942Z,7.53
2022-07-25T09:23:15.856Z,4.82
2022-07-25T09:25:46.428Z,3.75
2022-07-25T09:28:21.742Z,5.47
2022-07-25T09:31:03.689Z,8.98
2022-07-25T09:33:35.768Z,5.33
2022-07-25T09:36:14.175Z,11.10
2022-07-25T09:38:54.112Z,5.72
2022-07-25T09:41:24.429Z,11.30
2022-07-25T09:43:57.235Z,16.52
2022-07-25T09:49:04.061Z,5.70
2022-07-25T09:51:37.279Z,7.80
2022-07-25T09:54:08.163Z,6.40
2022-07-25T09:56:38.781Z,5.57
2022-07-25T09:59:11.981Z,11.98
2022-07-25T10:01:51.630Z,5.10
2022-07-25T10:04:25.388Z,14.77
2022-07-25T10:07:06.495Z,6.85
2022-07-25T10:09:36.822Z,6.63
2022-07-25T10:12:08.290Z,12.55
2022-07-25T10:14:41.994Z,9.68
2022-07-25T10:17:12.295Z,13.00
2022-07-25T10:19:54.183Z,7.18
2022-07-25T10:22:55.319Z,3.28
2022-07-25T10:25:27.090Z,8.25
2022-07-25T10:28:04.262Z,17.35
2022-07-25T10:30:43.740Z,10.45
2022-07-25T10:33:16.640Z,3.92
2022-07-25T10:35:47.427Z,5.53
2022-07-25T10:38:17.615Z,3.85
2022-07-25T10:40:49.057Z,4.32
2022-07-25T10:43:27.200Z,6.68
2022-07-25T10:46:01.415Z,4.10
2022-07-25T10:48:34.282Z,6.50
2022-07-25T10:51:06.414Z,11.18
2022-07-25T10:53:38.968Z,6.28
2022-07-25T10:56:12.035Z,5.47
2022-07-25T10:58:53.195Z,7.97
2022-07-25T11:01:28.490Z,3.95
2022-07-25T11:04:00.909Z,12.43
2022-07-25T11:06:36.554Z,5.93
2022-07-25T11:09:19.111Z,21.88
2022-07-25T11:11:53.441Z,12.57
2022-07-25T11:16:58.017Z,8.93
2022-07-25T11:19:29.924Z,6.88
2022-07-25T11:22:02.066Z,29.40
2022-07-25T11:24:40.525Z,4.00
2022-07-25T11:27:15.595Z,4.15
2022-07-25T11:29:45.758Z,6.18
2022-07-25T11:32:19.060Z,2.35
2022-07-25T11:34:52.431Z,11.55
2022-07-25T11:37:23.489Z,10.77
2022-07-25T11:39:56.209Z,4.13
2022-07-25T11:42:28.134Z,7.35
2022-07-25T11:44:58.262Z,5.50
2022-07-25T11:47:33.714Z,6.75
2022-07-25T11:50:06.788Z,9.77
2022-07-25T11:52:39.278Z,13.27
2022-07-25T11:55:11.904Z,12.70
2022-07-25T12:00:19.258Z,10.88
2022-07-25T12:02:52.867Z,11.77
2022-07-25T12:05:25.903Z,23.05
2022-07-25T12:08:00.994Z,10.20
2022-07-25T12:10:37.631Z,4.82
2022-07-25T12:13:10.345Z,8.57
2022-07-25T12:15:42.896Z,13.60
2022-07-25T12:20:46.760Z,4.65
2022-07-25T12:23:17.522Z,6.85
2022-07-25T12:25:49.756Z,15.00
2022-07-25T12:28:20.002Z,7.80
2022-07-25T12:30:56.136Z,9.68
2022-07-25T12:33:29.614Z,9.68
2022-07-25T12:36:03.002Z,5.55
2022-07-25T12:38:36.921Z,9.45
2022-07-25T12:41:07.467Z,6.97
2022-07-25T12:43:38.053Z,7.25
2022-07-25T12:46:09.338Z,3.10
2022-07-25T12:48:42.251Z,4.05
2022-07-25T12:51:12.508Z,14.82
2022-07-25T12:53:44.425Z,4.57
2022-07-25T12:56:15.525Z,8.15
2022-07-25T12:58:48.055Z,7.80
2022-07-25T13:03:51.028Z,6.13
2022-07-25T13:06:21.831Z,16.25
2022-07-25T13:08:52.052Z,10.93
2022-07-25T13:11:22.429Z,5.22
2022-07-25T13:13:52.623Z,6.25
2022-07-25T13:16:24.422Z,10.32
2022-07-25T13:19:00.406Z,6.90
2022-07-25T13:21:32.611Z,5.53
2022-07-25T13:24:02.913Z,9.15
2022-07-25T13:26:33.847Z,7.05
2022-07-25T13:29:08.686Z,5.85
2022-07-25T13:31:41.330Z,2.58
2022-07-25T13:34:15.220Z,15.27
2022-07-25T13:36:45.482Z,10.43
2022-07-25T13:39:15.654Z,6.15
2022-07-25T13:41:46.072Z,6.63
2022-07-25T13:44:16.477Z,2.58
2022-07-25T13:46:50.041Z,4.25
2022-07-25T13:49:22.991Z,5.65
2022-07-25T13:51:53.353Z,4.03
2022-07-25T13:54:23.871Z,10.13
2022-07-25T13:56:54.066Z,4.18
2022-07-25T13:59:24.286Z,11.68
2022-07-25T14:01:54.509Z,6.82
2022-07-25T14:04:27.592Z,5.95
2022-07-25T14:06:57.792Z,3.22
2022-07-25T14:09:27.921Z,7.55
2022-07-25T14:11:58.045Z,12.45
2022-07-25T14:14:28.500Z,12.35
2022-07-25T14:16:58.912Z,9.55
2022-07-25T14:19:32.741Z,3.08
2022-07-25T14:22:02.875Z,9.43
2022-07-25T14:24:33.047Z,9.48
2022-07-25T14:27:03.475Z,7.85
2022-07-25T14:29:33.667Z,15.57
2022-07-25T14:32:03.984Z,4.68
2022-07-25T14:34:38.053Z,8.40
2022-07-25T14:37:08.704Z,2.60
2022-07-25T14:39:38.920Z,4.25
2022-07-25T14:42:11.508Z,4.45
2022-07-25T14:44:42.041Z,20.27
2022-07-25T14:47:12.968Z,4.00
2022-07-25T14:49:46.646Z,4.95
2022-07-25T14:52:17.266Z,6.35
2022-07-25T14:54:47.563Z,5.75
2022-07-25T14:57:17.703Z,4.72
2022-07-25T14:59:48.056Z,8.00
2022-07-25T15:02:18.279Z,9.95
2022-07-25T15:04:51.186Z,12.20
2022-07-25T15:07:21.339Z,8.73
2022-07-25T15:09:51.616Z,4.95
2022-07-25T15:12:22.051Z,6.70
2022-07-25T15:14:52.224Z,4.90
2022-07-25T15:17:22.425Z,9.57
2022-07-25T15:19:55.430Z,8.25
2022-07-25T15:22:25.540Z,9.90
2022-07-25T15:25:29.804Z,19.40
2022-07-25T15:27:45.951Z,9.95
2022-07-25T15:30:16.405Z,18.33
2022-07-25T15:32:47.053Z,10.95
2022-07-25T15:35:20.042Z,17.75
2022-07-25T15:37:50.210Z,5.60
2022-07-25T15:40:20.486Z,9.82
2022-07-25T15:42:50.685Z,2.38
2022-07-25T15:45:37.492Z,7.03
2022-07-25T15:48:09.417Z,3.92
2022-07-25T15:50:43.984Z,16.67
2022-07-25T15:53:15.720Z,9.68
2022-07-25T15:55:46.353Z,9.87
2022-07-25T15:58:16.663Z,13.93
2022-07-25T16:00:47.563Z,9.18
2022-07-25T16:03:18.372Z,7.28
2022-07-25T16:05:51.587Z,8.95
2022-07-25T16:08:21.700Z,18.77
2022-07-25T16:10:52.058Z,15.88
2022-07-25T16:13:22.186Z,8.18
2022-07-25T16:15:52.649Z,14.00
2022-07-25T16:18:23.334Z,7.70
2022-07-25T16:20:56.413Z,5.95
2022-07-25T16:23:28.330Z,9.15
2022-07-25T16:25:58.515Z,7.43
2022-07-25T16:28:28.809Z,16.23
2022-07-25T16:30:59.576Z,10.25
2022-07-25T16:33:29.850Z,20.52
2022-07-25T16:36:03.863Z,9.20
2022-07-25T16:38:35.019Z,12.65
2022-07-25T16:41:05.167Z,19.40
2022-07-25T16:43:35.366Z,9.85
2022-07-25T16:46:05.656Z,11.52
2022-07-25T16:48:36.074Z,7.60
2022-07-25T16:51:09.559Z,14.10
2022-07-25T16:53:39.805Z,5.40
2022-07-25T16:56:10.660Z,11.10
2022-07-25T16:58:41.135Z,2.72
2022-07-25T17:01:12.087Z,6.28
2022-07-25T17:03:42.475Z,16.52
2022-07-25T17:06:16.540Z,11.70
2022-07-25T17:08:49.685Z,5.05
2022-07-25T17:11:19.867Z,3.20
2022-07-25T17:13:50.027Z,3.88
2022-07-25T17:16:20.417Z,7.75
2022-07-25T17:18:50.663Z,6.78
2022-07-25T17:21:23.484Z,8.13
2022-07-25T17:26:25.297Z,11.48
2022-07-25T17:28:56.064Z,6.72
2022-07-25T17:31:27.262Z,7.28
2022-07-25T17:33:57.508Z,3.53
2022-07-25T17:36:32.708Z,9.70
2022-07-25T17:39:02.936Z,3.38
2022-07-25T17:41:33.076Z,4.68
2022-07-25T17:44:04.196Z,15.50
2022-07-25T17:46:36.619Z,8.35
2022-07-25T17:49:07.463Z,6.53
2022-07-25T17:51:40.706Z,8.68
2022-07-25T17:54:11.521Z,11.82
2022-07-25T17:56:42.070Z,6.15
2022-07-25T17:59:12.440Z,12.52
2022-07-25T18:01:42.857Z,6.28
2022-07-25T18:04:14.473Z,4.65
2022-07-25T18:06:47.202Z,13.98
2022-07-25T18:09:20.584Z,14.52
2022-07-25T18:11:50.859Z,28.73
2022-07-25T18:14:21.104Z,25.73
2022-07-25T18:16:51.311Z,11.32
2022-07-25T18:19:23.636Z,12.23
2022-07-25T18:21:56.676Z,7.40
2022-07-25T18:24:29.372Z,6.82
2022-07-25T18:29:29.833Z,15.32
2022-07-25T18:32:05.358Z,13.50
2022-07-25T18:34:37.013Z,4.95
2022-07-25T18:37:09.903Z,21.55
2022-07-25T18:42:10.538Z,6.20
2022-07-25T18:52:44.220Z,8.95
2022-07-25T18:55:22.414Z,23.48
2022-07-25T18:57:54.980Z,10.52
2022-07-25T19:00:26.646Z,11.32
2022-07-25T19:03:01.280Z,20.90
2022-07-25T19:05:50.411Z,8.10
2022-07-25T19:08:37.694Z,28.20
2022-07-25T19:11:10.009Z,10.18
2022-07-25T19:13:51.223Z,28.08
2022-07-25T19:16:26.004Z,17.05
2022-07-25T19:19:07.812Z,13.48
2022-07-25T19:21:39.428Z,7.50
2022-07-25T19:24:14.792Z,23.73
2022-07-25T19:26:48.676Z,12.07
2022-07-25T19:29:20.118Z,7.25
2022-07-25T19:31:51.541Z,13.10
2022-07-25T19:34:21.873Z,9.20
2022-07-25T19:36:52.354Z,9.75
2022-07-25T19:39:26.857Z,7.13
2022-07-25T19:41:57.372Z,8.32
2022-07-25T19:44:29.838Z,12.88
2022-07-25T19:47:00.636Z,10.40
2022-07-25T19:49:32.682Z,15.82
2022-07-25T19:52:04.584Z,9.85
2022-07-25T19:54:37.611Z,18.25
2022-07-25T19:57:08.769Z,9.02
2022-07-25T19:59:39.185Z,8.50
2022-07-25T20:02:13.988Z,11.40
2022-07-25T20:04:44.441Z,10.50
2022-07-25T20:07:14.917Z,16.92
2022-07-25T20:09:47.793Z,8.35
2022-07-25T20:12:18.177Z,11.32
2022-07-25T20:14:49.556Z,7.07
2022-07-25T20:17:20.064Z,9.98
2022-07-25T20:19:52.165Z,20.80
2022-07-25T20:22:22.856Z,8.10
2022-07-25T20:24:56.026Z,8.95
2022-07-25T20:27:27.602Z,15.05
2022-07-25T20:29:58.564Z,9.40
2022-07-25T20:32:28.832Z,5.32
2022-07-25T20:35:00.279Z,8.40
2022-07-25T20:37:30.811Z,10.55
2022-07-25T20:40:04.939Z,8.50
2022-07-25T20:42:35.397Z,7.82
2022-07-25T20:45:06.246Z,9.05
2022-07-25T20:47:37.240Z,10.95
2022-07-25T20:50:09.888Z,8.10
2022-07-25T20:52:41.417Z,10.68
2022-07-25T20:55:14.746Z,5.78
2022-07-25T20:57:50.112Z,9.02
2022-07-25T21:00:21.623Z,6.05
2022-07-25T21:02:52.856Z,9.73
2022-07-25T21:05:24.159Z,7.75
2022-07-25T21:07:54.727Z,7.32
2022-07-25T21:10:28.643Z,6.53
2022-07-25T21:13:00.529Z,10.60
2022-07-25T21:15:36.296Z,10.93
2022-07-25T21:18:06.794Z,12.13
2022-07-25T21:20:37.308Z,8.75
2022-07-25T21:23:08.525Z,10.45
2022-07-25T21:25:41.758Z,13.23
2022-07-25T21:30:44.874Z,15.70
2022-07-25T21:33:15.587Z,23.95
2022-07-25T21:35:49.088Z,59.55
2022-07-25T21:38:27.456Z,51.15
2022-07-25T21:41:01.939Z,40.25
2022-07-25T21:43:32.306Z,36.03
2022-07-25T21:46:02.736Z,42.05
2022-07-25T21:48:45.609Z,52.97
2022-07-25T21:51:22.903Z,71.35
2022-07-25T21:53:53.973Z,71.70
2022-07-25T21:56:27.045Z,54.63
2022-07-25T21:58:57.505Z,50.63
2022-07-25T22:01:28.454Z,49.55
2022-07-25T22:03:59.663Z,78.40
2022-07-25T22:06:30.383Z,52.33
2022-07-25T22:09:01.259Z,79.50
2022-07-25T22:11:42.337Z,155.85
2022-07-25T22:14:16.113Z,130.95
2022-07-25T22:16:47.068Z,150.65
2022-07-25T22:19:22.038Z,132.93
2022-07-25T22:21:53.959Z,118.20
2022-07-25T22:24:24.254Z,111.20
2022-07-25T22:26:58.489Z,72.43
2022-07-25T22:29:29.237Z,60.10
2022-07-25T22:32:00.460Z,42.15
2022-07-25T22:34:31.290Z,37.42
2022-07-25T22:37:02.352Z,26.23
2022-07-25T22:39:33.385Z,36.83
2022-07-25T22:42:06.442Z,30.13
2022-07-25T22:44:37.125Z,23.92
2022-07-25T22:47:07.419Z,33.90
2022-07-25T22:49:37.859Z,23.48
2022-07-25T22:52:09.701Z,18.23
2022-07-25T22:54:40.412Z,21.88
2022-07-25T22:57:14.075Z,22.52
2022-07-25T22:59:49.469Z,13.73
2022-07-25T23:02:19.894Z,11.55
2022-07-25T23:04:50.264Z,9.23
2022-07-25T23:07:20.620Z,20.08
2022-07-25T23:09:51.093Z,11.80
2022-07-25T23:12:24.235Z,12.57
2022-07-25T23:14:54.539Z,17.40
2022-07-25T23:17:25.242Z,8.10
2022-07-25T23:19:57.279Z,9.35
2022-07-25T23:22:30.378Z,12.68
2022-07-25T23:25:01.843Z,7.97
2022-07-25T23:27:35.189Z,14.82
2022-07-25T23:32:36.272Z,8.68
2022-07-25T23:35:07.173Z,8.05
2022-07-25T23:37:38.247Z,7.10
2022-07-25T23:40:10.645Z,7.65
2022-07-25T23:42:44.134Z,9.20
2022-07-25T23:45:15.614Z,12.43
2022-07-25T23:47:46.156Z,15.27
2022-07-25T23:50:16.500Z,10.90
2022-07-25T23:52:46.944Z,6.63
2022-07-25T23:55:17.696Z,12.63
2022-07-25T23:57:51.102Z,12.32
